sensor_id;sensor_type;location;lat;lon;timestamp;pressure;altitude;pressure_sealevel;temperature;humidity
50790;BME280;37287;47.554;7.844;2023-06-01T00:02:23;97846.31;;;15.44;57.90
50790;BME280;37287;47.554;7.844;2023-06-01T00:04:50;97844.59;;;15.57;57.20
50790;BME280;37287;47.554;7.844;2023-06-01T00:07:18;97843.13;;;15.49;57.50
50790;BME280;37287;47.554;7.844;2023-06-01T00:09:46;97836.66;;;15.36;57.87
50790;BME280;37287;47.554;7.844;2023-06-01T00:12:13;97840.50;;;15.07;59.40
50790;BME280;37287;47.554;7.844;2023-06-01T00:14:42;97833.16;;;15.01;60.65
50790;BME280;37287;47.554;7.844;2023-06-01T00:17:09;97828.78;;;15.10;59.91
50790;BME280;37287;47.554;7.844;2023-06-01T00:19:36;97836.97;;;15.07;59.97
50790;BME280;37287;47.554;7.844;2023-06-01T00:22:05;97840.78;;;15.17;59.82
50790;BME280;37287;47.554;7.844;2023-06-01T00:24:34;97840.97;;;15.33;59.46
50790;BME280;37287;47.554;7.844;2023-06-01T00:27:02;97839.81;;;15.34;58.84
50790;BME280;37287;47.554;7.844;2023-06-01T00:29:29;97842.34;;;15.14;59.90
50790;BME280;37287;47.554;7.844;2023-06-01T00:31:56;97846.03;;;15.00;60.54
50790;BME280;37287;47.554;7.844;2023-06-01T00:34:23;97837.22;;;14.85;61.38
50790;BME280;37287;47.554;7.844;2023-06-01T00:36:50;97839.19;;;14.81;61.75
50790;BME280;37287;47.554;7.844;2023-06-01T00:39:17;97845.13;;;14.72;62.33
50790;BME280;37287;47.554;7.844;2023-06-01T00:41:43;97841.72;;;14.57;63.07
50790;BME280;37287;47.554;7.844;2023-06-01T00:44:10;97842.50;;;14.58;63.02
50790;BME280;37287;47.554;7.844;2023-06-01T00:46:38;97838.44;;;14.35;63.83
50790;BME280;37287;47.554;7.844;2023-06-01T00:49:06;97844.56;;;14.43;63.89
50790;BME280;37287;47.554;7.844;2023-06-01T00:51:33;97845.03;;;14.38;63.71
50790;BME280;37287;47.554;7.844;2023-06-01T00:54:03;97842.69;;;14.36;63.91
50790;BME280;37287;47.554;7.844;2023-06-01T00:56:30;97843.06;;;14.38;64.89
50790;BME280;37287;47.554;7.844;2023-06-01T00:58:58;97845.63;;;14.07;68.52
50790;BME280;37287;47.554;7.844;2023-06-01T01:01:26;97843.44;;;13.84;68.65
50790;BME280;37287;47.554;7.844;2023-06-01T01:03:53;97843.50;;;13.77;68.96
50790;BME280;37287;47.554;7.844;2023-06-01T01:06:56;97843.41;;;13.88;69.55
50790;BME280;37287;47.554;7.844;2023-06-01T01:09:31;97841.03;;;13.97;67.47
50790;BME280;37287;47.554;7.844;2023-06-01T01:12:01;97846.66;;;13.65;68.92
50790;BME280;37287;47.554;7.844;2023-06-01T01:15:01;97844.00;;;13.50;70.86
50790;BME280;37287;47.554;7.844;2023-06-01T01:17:30;97847.09;;;13.49;69.58
50790;BME280;37287;47.554;7.844;2023-06-01T01:20:06;97852.91;;;13.62;69.55
50790;BME280;37287;47.554;7.844;2023-06-01T01:25:38;97860.38;;;13.36;73.03
50790;BME280;37287;47.554;7.844;2023-06-01T01:28:20;97865.03;;;13.24;71.11
50790;BME280;37287;47.554;7.844;2023-06-01T01:30:53;97856.13;;;13.20;71.41
50790;BME280;37287;47.554;7.844;2023-06-01T01:33:21;97864.66;;;13.22;70.98
50790;BME280;37287;47.554;7.844;2023-06-01T01:35:49;97861.56;;;13.20;70.90
50790;BME280;37287;47.554;7.844;2023-06-01T01:38:19;97865.09;;;13.14;71.67
50790;BME280;37287;47.554;7.844;2023-06-01T01:40:46;97871.31;;;13.11;71.89
50790;BME280;37287;47.554;7.844;2023-06-01T01:43:12;97864.28;;;13.28;71.45
50790;BME280;37287;47.554;7.844;2023-06-01T01:45:40;97858.09;;;13.16;74.27
50790;BME280;37287;47.554;7.844;2023-06-01T01:48:33;97858.53;;;12.97;75.74
50790;BME280;37287;47.554;7.844;2023-06-01T01:51:09;97861.63;;;12.99;73.54
50790;BME280;37287;47.554;7.844;2023-06-01T01:53:38;97856.94;;;13.03;72.60
50790;BME280;37287;47.554;7.844;2023-06-01T01:56:09;97856.59;;;12.94;72.82
50790;BME280;37287;47.554;7.844;2023-06-01T01:58:36;97859.28;;;13.04;72.51
50790;BME280;37287;47.554;7.844;2023-06-01T02:01:07;97854.97;;;13.14;71.63
50790;BME280;37287;47.554;7.844;2023-06-01T02:03:36;97855.78;;;13.04;71.37
50790;BME280;37287;47.554;7.844;2023-06-01T02:06:03;97856.19;;;12.95;72.45
50790;BME280;37287;47.554;7.844;2023-06-01T02:08:30;97857.72;;;13.07;72.00
50790;BME280;37287;47.554;7.844;2023-06-01T02:10:56;97864.34;;;12.99;72.93
50790;BME280;37287;47.554;7.844;2023-06-01T02:13:23;97860.81;;;13.16;72.58
50790;BME280;37287;47.554;7.844;2023-06-01T02:15:51;97860.84;;;13.05;72.36
50790;BME280;37287;47.554;7.844;2023-06-01T02:18:27;97860.81;;;13.09;73.31
50790;BME280;37287;47.554;7.844;2023-06-01T02:20:56;97868.56;;;13.18;72.64
50790;BME280;37287;47.554;7.844;2023-06-01T02:23:22;97863.91;;;13.11;72.26
50790;BME280;37287;47.554;7.844;2023-06-01T02:25:57;97858.06;;;13.20;72.06
50790;BME280;37287;47.554;7.844;2023-06-01T02:28:24;97849.94;;;13.16;72.23
50790;BME280;37287;47.554;7.844;2023-06-01T02:30:50;97856.53;;;13.15;72.56
50790;BME280;37287;47.554;7.844;2023-06-01T02:33:17;97855.41;;;12.95;73.18
50790;BME280;37287;47.554;7.844;2023-06-01T02:35:45;97859.31;;;12.86;73.67
50790;BME280;37287;47.554;7.844;2023-06-01T02:38:12;97864.75;;;12.90;74.27
50790;BME280;37287;47.554;7.844;2023-06-01T02:40:40;97846.13;;;12.88;74.08
50790;BME280;37287;47.554;7.844;2023-06-01T02:43:07;97853.91;;;12.72;74.25
50790;BME280;37287;47.554;7.844;2023-06-01T02:45:33;97852.00;;;12.47;77.83
50790;BME280;37287;47.554;7.844;2023-06-01T02:48:04;97849.66;;;12.38;76.37
50790;BME280;37287;47.554;7.844;2023-06-01T02:50:34;97850.81;;;12.48;76.79
50790;BME280;37287;47.554;7.844;2023-06-01T02:53:00;97846.16;;;12.56;77.18
50790;BME280;37287;47.554;7.844;2023-06-01T02:55:29;97853.16;;;12.32;78.93
50790;BME280;37287;47.554;7.844;2023-06-01T02:57:56;97856.25;;;12.19;79.66
50790;BME280;37287;47.554;7.844;2023-06-01T03:00:22;97856.25;;;12.30;78.66
50790;BME280;37287;47.554;7.844;2023-06-01T03:02:49;97853.91;;;12.50;77.37
50790;BME280;37287;47.554;7.844;2023-06-01T03:05:15;97849.28;;;12.54;76.16
50790;BME280;37287;47.554;7.844;2023-06-01T03:07:44;97851.97;;;12.44;76.34
50790;BME280;37287;47.554;7.844;2023-06-01T03:10:12;97860.09;;;12.18;77.50
50790;BME280;37287;47.554;7.844;2023-06-01T03:12:39;97845.00;;;12.17;77.94
50790;BME280;37287;47.554;7.844;2023-06-01T03:15:06;97853.16;;;12.10;79.35
50790;BME280;37287;47.554;7.844;2023-06-01T03:17:33;97848.88;;;12.02;78.66
50790;BME280;37287;47.554;7.844;2023-06-01T03:19:59;97857.00;;;12.06;78.75
50790;BME280;37287;47.554;7.844;2023-06-01T03:22:26;97859.69;;;11.98;78.70
50790;BME280;37287;47.554;7.844;2023-06-01T03:24:55;97857.00;;;12.13;79.66
50790;BME280;37287;47.554;7.844;2023-06-01T03:27:21;97855.88;;;12.32;78.28
50790;BME280;37287;47.554;7.844;2023-06-01T03:29:48;97859.72;;;12.31;76.53
50790;BME280;37287;47.554;7.844;2023-06-01T03:32:15;97863.22;;;12.24;77.38
50790;BME280;37287;47.554;7.844;2023-06-01T03:34:41;97864.78;;;12.36;77.07
50790;BME280;37287;47.554;7.844;2023-06-01T03:37:08;97859.72;;;12.38;76.89
50790;BME280;37287;47.554;7.844;2023-06-01T03:39:35;97862.06;;;12.36;77.62
50790;BME280;37287;47.554;7.844;2023-06-01T03:42:02;97864.00;;;12.35;77.26
50790;BME280;37287;47.554;7.844;2023-06-01T03:44:28;97874.09;;;12.35;78.08
50790;BME280;37287;47.554;7.844;2023-06-01T03:46:57;97867.88;;;12.38;77.92
50790;BME280;37287;47.554;7.844;2023-06-01T03:49:24;97870.97;;;12.26;78.51
50790;BME280;37287;47.554;7.844;2023-06-01T03:51:50;97870.97;;;12.29;78.32
50790;BME280;37287;47.554;7.844;2023-06-01T03:54:19;97870.59;;;12.24;78.64
50790;BME280;37287;47.554;7.844;2023-06-01T03:56:49;97867.13;;;12.30;78.82
50790;BME280;37287;47.554;7.844;2023-06-01T03:59:16;97868.66;;;12.28;79.15
50790;BME280;37287;47.554;7.844;2023-06-01T04:01:43;97874.88;;;12.25;79.11
50790;BME280;37287;47.554;7.844;2023-06-01T04:04:09;97878.72;;;12.31;79.77
50790;BME280;37287;47.554;7.844;2023-06-01T04:06:39;97879.13;;;12.44;79.76
50790;BME280;37287;47.554;7.844;2023-06-01T04:09:09;97878.38;;;12.43;79.96
50790;BME280;37287;47.554;7.844;2023-06-01T04:11:36;97880.69;;;12.59;79.61
50790;BME280;37287;47.554;7.844;2023-06-01T04:14:02;97881.09;;;12.61;78.76
50790;BME280;37287;47.554;7.844;2023-06-01T04:16:31;97878.38;;;12.61;79.27
50790;BME280;37287;47.554;7.844;2023-06-01T04:18:58;97880.66;;;12.81;79.73
50790;BME280;37287;47.554;7.844;2023-06-01T04:21:25;97888.41;;;13.04;77.05
50790;BME280;37287;47.554;7.844;2023-06-01T04:23:58;97887.59;;;13.03;77.44
50790;BME280;37287;47.554;7.844;2023-06-01T04:26:24;97891.09;;;13.11;76.93
50790;BME280;37287;47.554;7.844;2023-06-01T04:28:53;97891.88;;;13.12;76.49
50790;BME280;37287;47.554;7.844;2023-06-01T04:31:24;97881.38;;;13.17;77.01
50790;BME280;37287;47.554;7.844;2023-06-01T04:33:53;97893.41;;;13.20;77.22
50790;BME280;37287;47.554;7.844;2023-06-01T04:36:22;97894.91;;;13.50;77.25
50790;BME280;37287;47.554;7.844;2023-06-01T04:38:50;97899.44;;;13.78;75.90
50790;BME280;37287;47.554;7.844;2023-06-01T04:41:21;97900.50;;;13.99;75.49
50790;BME280;37287;47.554;7.844;2023-06-01T04:43:57;97901.53;;;14.19;75.06
50790;BME280;37287;47.554;7.844;2023-06-01T04:46:25;97909.34;;;14.14;74.04
50790;BME280;37287;47.554;7.844;2023-06-01T04:48:53;97903.59;;;14.01;74.97
50790;BME280;37287;47.554;7.844;2023-06-01T04:51:21;97905.16;;;13.98;74.92
50790;BME280;37287;47.554;7.844;2023-06-01T04:53:51;97901.19;;;14.17;74.71
50790;BME280;37287;47.554;7.844;2023-06-01T04:56:20;97900.72;;;14.30;74.20
50790;BME280;37287;47.554;7.844;2023-06-01T04:58:48;97906.13;;;14.33;74.28
50790;BME280;37287;47.554;7.844;2023-06-01T05:01:15;97902.50;;;14.51;74.66
50790;BME280;37287;47.554;7.844;2023-06-01T05:03:42;97910.50;;;14.76;74.22
50790;BME280;37287;47.554;7.844;2023-06-01T05:06:11;97914.06;;;15.11;73.22
50790;BME280;37287;47.554;7.844;2023-06-01T05:08:41;97915.28;;;15.44;72.46
50790;BME280;37287;47.554;7.844;2023-06-01T05:11:09;97913.00;;;15.74;70.56
50790;BME280;37287;47.554;7.844;2023-06-01T05:13:42;97915.88;;;16.25;69.94
50790;BME280;37287;47.554;7.844;2023-06-01T05:16:12;97909.81;;;17.72;64.86
50790;BME280;37287;47.554;7.844;2023-06-01T05:18:39;97902.88;;;18.73;60.32
50790;BME280;37287;47.554;7.844;2023-06-01T05:21:06;97903.84;;;19.29;56.88
50790;BME280;37287;47.554;7.844;2023-06-01T05:23:33;97911.44;;;19.38;55.67
50790;BME280;37287;47.554;7.844;2023-06-01T05:25:59;97903.53;;;19.11;55.86
50790;BME280;37287;47.554;7.844;2023-06-01T05:28:32;97911.19;;;18.37;57.70
50790;BME280;37287;47.554;7.844;2023-06-01T05:31:02;97911.56;;;17.82;59.62
50790;BME280;37287;47.554;7.844;2023-06-01T05:33:29;97913.47;;;17.65;60.76
50790;BME280;37287;47.554;7.844;2023-06-01T05:35:58;97917.13;;;17.39;61.17
50790;BME280;37287;47.554;7.844;2023-06-01T05:38:25;97914.19;;;17.29;62.49
50790;BME280;37287;47.554;7.844;2023-06-01T05:40:51;97909.38;;;17.13;62.53
50790;BME280;37287;47.554;7.844;2023-06-01T05:43:18;97915.88;;;16.99;63.47
50790;BME280;37287;47.554;7.844;2023-06-01T05:45:45;97910.28;;;17.07;63.64
50790;BME280;37287;47.554;7.844;2023-06-01T05:48:12;97912.22;;;17.06;63.94
50790;BME280;37287;47.554;7.844;2023-06-01T05:50:43;97913.16;;;16.99;64.67
50790;BME280;37287;47.554;7.844;2023-06-01T05:53:10;97909.66;;;17.19;64.06
50790;BME280;37287;47.554;7.844;2023-06-01T05:55:37;97917.56;;;17.13;63.84
50790;BME280;37287;47.554;7.844;2023-06-01T05:58:05;97913.81;;;17.27;63.08
50790;BME280;37287;47.554;7.844;2023-06-01T06:00:33;97911.91;;;17.24;62.44
50790;BME280;37287;47.554;7.844;2023-06-01T06:03:02;97915.25;;;17.12;63.39
50790;BME280;37287;47.554;7.844;2023-06-01T06:05:36;97908.06;;;17.22;63.90
50790;BME280;37287;47.554;7.844;2023-06-01T06:08:02;97908.75;;;17.26;63.63
50790;BME280;37287;47.554;7.844;2023-06-01T06:10:29;97912.84;;;17.38;63.34
50790;BME280;37287;47.554;7.844;2023-06-01T06:12:56;97911.16;;;17.64;62.75
50790;BME280;37287;47.554;7.844;2023-06-01T06:15:22;97918.31;;;17.78;61.71
50790;BME280;37287;47.554;7.844;2023-06-01T06:17:51;97918.09;;;17.68;62.26
50790;BME280;37287;47.554;7.844;2023-06-01T06:20:22;97917.53;;;17.57;62.87
50790;BME280;37287;47.554;7.844;2023-06-01T06:22:50;97922.59;;;17.79;62.39
50790;BME280;37287;47.554;7.844;2023-06-01T06:25:17;97917.75;;;17.86;62.50
50790;BME280;37287;47.554;7.844;2023-06-01T06:27:46;97919.06;;;17.78;62.64
50790;BME280;37287;47.554;7.844;2023-06-01T06:30:15;97918.31;;;17.78;63.21
50790;BME280;37287;47.554;7.844;2023-06-01T06:32:44;97918.41;;;17.94;62.89
50790;BME280;37287;47.554;7.844;2023-06-01T06:35:11;97921.38;;;18.36;61.05
50790;BME280;37287;47.554;7.844;2023-06-01T06:37:42;97918.63;;;18.36;60.57
50790;BME280;37287;47.554;7.844;2023-06-01T06:40:10;97914.63;;;18.41;61.64
50790;BME280;37287;47.554;7.844;2023-06-01T06:42:37;97921.38;;;18.86;60.92
50790;BME280;37287;47.554;7.844;2023-06-01T06:45:04;97924.00;;;19.22;60.29
50790;BME280;37287;47.554;7.844;2023-06-01T06:47:31;97920.56;;;19.77;59.44
50790;BME280;37287;47.554;7.844;2023-06-01T06:49:58;97924.47;;;20.44;56.29
50790;BME280;37287;47.554;7.844;2023-06-01T06:52:25;97917.97;;;20.76;55.45
50790;BME280;37287;47.554;7.844;2023-06-01T06:54:52;97919.69;;;20.96;55.75
50790;BME280;37287;47.554;7.844;2023-06-01T06:57:20;97912.91;;;21.67;54.34
50790;BME280;37287;47.554;7.844;2023-06-01T06:59:47;97924.88;;;21.95;52.60
50790;BME280;37287;47.554;7.844;2023-06-01T07:02:13;97920.91;;;21.74;52.22
50790;BME280;37287;47.554;7.844;2023-06-01T07:04:44;97918.88;;;21.88;51.96
50790;BME280;37287;47.554;7.844;2023-06-01T07:07:13;97921.88;;;22.43;51.35
50790;BME280;37287;47.554;7.844;2023-06-01T07:09:39;97921.81;;;22.65;50.64
50790;BME280;37287;47.554;7.844;2023-06-01T07:12:07;97911.69;;;22.72;51.30
50790;BME280;37287;47.554;7.844;2023-06-01T07:14:34;97910.06;;;23.30;50.59
50790;BME280;37287;47.554;7.844;2023-06-01T07:17:02;97909.41;;;23.72;49.54
50790;BME280;37287;47.554;7.844;2023-06-01T07:19:40;97908.59;;;24.42;48.58
50790;BME280;37287;47.554;7.844;2023-06-01T07:22:07;97911.09;;;25.13;46.53
50790;BME280;37287;47.554;7.844;2023-06-01T07:24:34;97916.38;;;25.95;44.82
50790;BME280;37287;47.554;7.844;2023-06-01T07:27:00;97916.44;;;26.30;43.54
50790;BME280;37287;47.554;7.844;2023-06-01T07:29:29;97920.50;;;25.69;43.90
50790;BME280;37287;47.554;7.844;2023-06-01T07:31:56;97916.03;;;25.33;45.08
50790;BME280;37287;47.554;7.844;2023-06-01T07:34:24;97916.84;;;25.63;44.24
50790;BME280;37287;47.554;7.844;2023-06-01T07:36:52;97916.00;;;26.02;43.00
50790;BME280;37287;47.554;7.844;2023-06-01T07:39:30;97916.78;;;26.38;42.44
50790;BME280;37287;47.554;7.844;2023-06-01T07:42:00;97921.03;;;26.18;42.24
50790;BME280;37287;47.554;7.844;2023-06-01T07:44:29;97923.25;;;26.14;42.38
50790;BME280;37287;47.554;7.844;2023-06-01T07:46:56;97915.63;;;26.09;41.92
50790;BME280;37287;47.554;7.844;2023-06-01T07:49:22;97917.16;;;26.10;41.86
50790;BME280;37287;47.554;7.844;2023-06-01T07:51:49;97917.13;;;26.25;41.26
50790;BME280;37287;47.554;7.844;2023-06-01T07:54:23;97908.94;;;26.51;39.90
50790;BME280;37287;47.554;7.844;2023-06-01T07:56:56;97907.47;;;26.20;40.89
50790;BME280;37287;47.554;7.844;2023-06-01T07:59:23;97906.50;;;25.79;41.25
50790;BME280;37287;47.554;7.844;2023-06-01T08:01:54;97909.69;;;25.56;41.88
50790;BME280;37287;47.554;7.844;2023-06-01T08:04:23;97909.03;;;25.22;42.37
50790;BME280;37287;47.554;7.844;2023-06-01T08:06:52;97910.22;;;24.82;42.59
50790;BME280;37287;47.554;7.844;2023-06-01T08:09:22;97910.09;;;25.01;42.54
50790;BME280;37287;47.554;7.844;2023-06-01T08:11:53;97907.06;;;25.14;42.30
50790;BME280;37287;47.554;7.844;2023-06-01T08:14:20;97912.91;;;25.70;41.22
50790;BME280;37287;47.554;7.844;2023-06-01T08:16:47;97913.03;;;25.61;41.47
50790;BME280;37287;47.554;7.844;2023-06-01T08:19:16;97911.94;;;25.43;41.77
50790;BME280;37287;47.554;7.844;2023-06-01T08:21:44;97904.31;;;25.38;42.33
50790;BME280;37287;47.554;7.844;2023-06-01T08:24:12;97908.81;;;25.80;41.59
50790;BME280;37287;47.554;7.844;2023-06-01T08:26:39;97910.25;;;26.56;40.35
50790;BME280;37287;47.554;7.844;2023-06-01T08:29:06;97903.84;;;26.85;39.18
50790;BME280;37287;47.554;7.844;2023-06-01T08:31:33;97899.06;;;27.06;39.16
50790;BME280;37287;47.554;7.844;2023-06-01T08:34:01;97900.09;;;27.56;38.31
50790;BME280;37287;47.554;7.844;2023-06-01T08:36:30;97903.50;;;26.98;38.82
50790;BME280;37287;47.554;7.844;2023-06-01T08:38:57;97900.78;;;27.04;38.97
50790;BME280;37287;47.554;7.844;2023-06-01T08:41:35;97901.00;;;27.47;37.33
50790;BME280;37287;47.554;7.844;2023-06-01T08:44:04;97901.75;;;27.01;39.28
50790;BME280;37287;47.554;7.844;2023-06-01T08:46:32;97904.38;;;27.10;38.54
50790;BME280;37287;47.554;7.844;2023-06-01T08:49:01;97906.97;;;26.93;38.96
50790;BME280;37287;47.554;7.844;2023-06-01T08:51:33;97895.50;;;27.06;39.21
50790;BME280;37287;47.554;7.844;2023-06-01T08:54:05;97897.16;;;27.18;38.76
50790;BME280;37287;47.554;7.844;2023-06-01T08:56:37;97891.88;;;27.67;37.84
50790;BME280;37287;47.554;7.844;2023-06-01T08:59:12;97897.13;;;28.23;36.93
50790;BME280;37287;47.554;7.844;2023-06-01T09:01:41;97893.88;;;27.67;37.85
50790;BME280;37287;47.554;7.844;2023-06-01T09:04:08;97892.41;;;27.45;38.60
50790;BME280;37287;47.554;7.844;2023-06-01T09:06:41;97890.97;;;27.55;38.47
50790;BME280;37287;47.554;7.844;2023-06-01T09:09:09;97893.56;;;28.23;37.26
50790;BME280;37287;47.554;7.844;2023-06-01T09:11:40;97891.44;;;28.06;37.08
50790;BME280;37287;47.554;7.844;2023-06-01T09:14:20;97880.38;;;27.86;37.31
50790;BME280;37287;47.554;7.844;2023-06-01T09:16:48;97885.03;;;27.68;37.37
50790;BME280;37287;47.554;7.844;2023-06-01T09:19:15;97870.09;;;27.97;37.12
50790;BME280;37287;47.554;7.844;2023-06-01T09:21:58;97877.47;;;28.01;35.28
50790;BME280;37287;47.554;7.844;2023-06-01T09:24:26;97881.22;;;27.97;36.43
50790;BME280;37287;47.554;7.844;2023-06-01T09:26:58;97876.72;;;27.42;37.14
50790;BME280;37287;47.554;7.844;2023-06-01T09:29:29;97873.88;;;27.16;37.86
50790;BME280;37287;47.554;7.844;2023-06-01T09:32:03;97874.94;;;26.98;37.90
50790;BME280;37287;47.554;7.844;2023-06-01T09:34:30;97874.34;;;26.88;38.01
50790;BME280;37287;47.554;7.844;2023-06-01T09:37:05;97883.72;;;26.34;38.14
50790;BME280;37287;47.554;7.844;2023-06-01T09:39:34;97871.78;;;26.13;38.84
50790;BME280;37287;47.554;7.844;2023-06-01T09:42:01;97882.66;;;26.32;38.47
50790;BME280;37287;47.554;7.844;2023-06-01T09:44:38;97870.31;;;26.33;38.32
50790;BME280;37287;47.554;7.844;2023-06-01T09:47:07;97868.72;;;26.47;38.14
50790;BME280;37287;47.554;7.844;2023-06-01T09:49:42;97860.72;;;26.69;37.83
50790;BME280;37287;47.554;7.844;2023-06-01T09:52:20;97861.53;;;26.19;38.94
50790;BME280;37287;47.554;7.844;2023-06-01T09:54:48;97854.97;;;26.58;37.81
50790;BME280;37287;47.554;7.844;2023-06-01T09:57:25;97852.06;;;26.82;37.05
50790;BME280;37287;47.554;7.844;2023-06-01T09:59:55;97854.66;;;27.12;37.21
50790;BME280;37287;47.554;7.844;2023-06-01T10:02:23;97853.97;;;26.97;37.38
50790;BME280;37287;47.554;7.844;2023-06-01T10:04:55;97848.69;;;26.99;37.30
50790;BME280;37287;47.554;7.844;2023-06-01T10:07:30;97850.47;;;27.02;37.05
50790;BME280;37287;47.554;7.844;2023-06-01T10:09:59;97843.03;;;27.14;37.03
50790;BME280;37287;47.554;7.844;2023-06-01T10:12:31;97841.31;;;27.16;37.23
50790;BME280;37287;47.554;7.844;2023-06-01T10:15:00;97838.97;;;26.88;37.94
50790;BME280;37287;47.554;7.844;2023-06-01T10:17:38;97838.81;;;26.98;38.00
50790;BME280;37287;47.554;7.844;2023-06-01T10:20:11;97833.34;;;27.29;37.72
50790;BME280;37287;47.554;7.844;2023-06-01T10:22:45;97836.19;;;27.61;36.97
50790;BME280;37287;47.554;7.844;2023-06-01T10:25:21;97832.72;;;27.72;37.33
50790;BME280;37287;47.554;7.844;2023-06-01T10:28:01;97842.72;;;28.22;36.34
50790;BME280;37287;47.554;7.844;2023-06-01T10:30:28;97837.69;;;28.26;36.38
50790;BME280;37287;47.554;7.844;2023-06-01T10:32:55;97836.81;;;28.09;37.00
50790;BME280;37287;47.554;7.844;2023-06-01T10:40:45;97823.03;;;28.31;35.95
50790;BME280;37287;47.554;7.844;2023-06-01T10:46:02;97820.47;;;27.58;36.98
50790;BME280;37287;47.554;7.844;2023-06-01T10:48:53;97820.56;;;28.45;35.11
50790;BME280;37287;47.554;7.844;2023-06-01T10:51:21;97815.66;;;28.77;35.43
50790;BME280;37287;47.554;7.844;2023-06-01T10:53:50;97818.75;;;29.08;34.79
50790;BME280;37287;47.554;7.844;2023-06-01T10:56:26;97813.75;;;29.35;33.90
50790;BME280;37287;47.554;7.844;2023-06-01T11:01:45;97815.03;;;29.56;34.08
50790;BME280;37287;47.554;7.844;2023-06-01T11:04:35;97805.69;;;29.59;33.30
50790;BME280;37287;47.554;7.844;2023-06-01T11:07:38;97803.88;;;29.90;32.83
50790;BME280;37287;47.554;7.844;2023-06-01T11:10:06;97798.53;;;30.04;33.44
50790;BME280;37287;47.554;7.844;2023-06-01T11:13:11;97788.66;;;29.68;33.13
50790;BME280;37287;47.554;7.844;2023-06-01T11:15:40;97798.81;;;29.60;34.10
50790;BME280;37287;47.554;7.844;2023-06-01T11:23:44;97784.88;;;29.38;34.27
50790;BME280;37287;47.554;7.844;2023-06-01T11:26:19;97790.19;;;29.58;33.87
50790;BME280;37287;47.554;7.844;2023-06-01T11:28:48;97786.38;;;29.61;33.58
50790;BME280;37287;47.554;7.844;2023-06-01T11:31:19;97781.28;;;29.09;34.61
50790;BME280;37287;47.554;7.844;2023-06-01T11:33:51;97782.81;;;29.10;34.29
50790;BME280;37287;47.554;7.844;2023-06-01T11:36:24;97785.63;;;29.27;34.48
50790;BME280;37287;47.554;7.844;2023-06-01T11:38:53;97777.53;;;29.46;34.05
50790;BME280;37287;47.554;7.844;2023-06-01T11:41:22;97779.78;;;29.76;33.79
50790;BME280;37287;47.554;7.844;2023-06-01T11:43:54;97778.75;;;29.67;32.77
50790;BME280;37287;47.554;7.844;2023-06-01T11:46:25;97773.97;;;29.51;34.07
50790;BME280;37287;47.554;7.844;2023-06-01T11:49:00;97776.06;;;28.56;33.76
50790;BME280;37287;47.554;7.844;2023-06-01T11:51:33;97770.06;;;28.80;34.48
50790;BME280;37287;47.554;7.844;2023-06-01T11:54:03;97762.25;;;28.96;34.40
50790;BME280;37287;47.554;7.844;2023-06-01T11:56:35;97758.44;;;28.93;35.00
50790;BME280;37287;47.554;7.844;2023-06-01T11:59:04;97765.84;;;29.25;34.35
50790;BME280;37287;47.554;7.844;2023-06-01T12:01:42;97764.06;;;29.61;33.53
50790;BME280;37287;47.554;7.844;2023-06-01T12:04:17;97755.19;;;29.63;33.85
50790;BME280;37287;47.554;7.844;2023-06-01T12:06:44;97756.44;;;29.22;34.55
50790;BME280;37287;47.554;7.844;2023-06-01T12:09:12;97743.50;;;29.02;34.76
50790;BME280;37287;47.554;7.844;2023-06-01T12:11:41;97737.94;;;29.19;34.57
50790;BME280;37287;47.554;7.844;2023-06-01T12:14:11;97740.53;;;29.28;34.87
50790;BME280;37287;47.554;7.844;2023-06-01T12:16:56;97729.84;;;29.66;34.32
50790;BME280;37287;47.554;7.844;2023-06-01T12:19:26;97734.88;;;29.96;34.10
50790;BME280;37287;47.554;7.844;2023-06-01T12:21:56;97736.91;;;29.79;34.45
50790;BME280;37287;47.554;7.844;2023-06-01T12:27:03;97735.06;;;30.10;33.66
50790;BME280;37287;47.554;7.844;2023-06-01T12:29:46;97735.56;;;30.14;33.32
50790;BME280;37287;47.554;7.844;2023-06-01T12:32:17;97725.50;;;29.77;34.20
50790;BME280;37287;47.554;7.844;2023-06-01T12:35:05;97728.06;;;29.52;33.74
50790;BME280;37287;47.554;7.844;2023-06-01T12:37:34;97719.47;;;29.33;34.80
50790;BME280;37287;47.554;7.844;2023-06-01T12:40:01;97719.22;;;29.42;34.55
50790;BME280;37287;47.554;7.844;2023-06-01T12:42:37;97719.94;;;29.60;34.46
50790;BME280;37287;47.554;7.844;2023-06-01T12:45:11;97714.13;;;29.24;35.34
50790;BME280;37287;47.554;7.844;2023-06-01T12:47:41;97716.16;;;29.17;35.27
50790;BME280;37287;47.554;7.844;2023-06-01T12:50:10;97707.56;;;29.15;35.03
50790;BME280;37287;47.554;7.844;2023-06-01T12:52:39;97712.09;;;29.07;35.68
50790;BME280;37287;47.554;7.844;2023-06-01T12:55:08;97707.56;;;29.38;34.74
50790;BME280;37287;47.554;7.844;2023-06-01T12:57:40;97706.03;;;29.43;34.71
50790;BME280;37287;47.554;7.844;2023-06-01T13:00:07;97707.78;;;29.46;34.72
50790;BME280;37287;47.554;7.844;2023-06-01T13:02:34;97700.16;;;29.63;34.26
50790;BME280;37287;47.554;7.844;2023-06-01T13:05:04;97701.66;;;29.76;34.36
50790;BME280;37287;47.554;7.844;2023-06-01T13:07:32;97696.34;;;29.83;33.80
50790;BME280;37287;47.554;7.844;2023-06-01T13:09:59;97683.63;;;29.82;34.06
50790;BME280;37287;47.554;7.844;2023-06-01T13:12:26;97688.72;;;29.78;34.13
50790;BME280;37287;47.554;7.844;2023-06-01T13:14:56;97687.22;;;29.66;34.26
50790;BME280;37287;47.554;7.844;2023-06-01T13:17:23;97686.94;;;29.81;34.20
50790;BME280;37287;47.554;7.844;2023-06-01T13:19:52;97685.94;;;29.73;34.49
50790;BME280;37287;47.554;7.844;2023-06-01T13:22:23;97687.97;;;29.83;34.26
50790;BME280;37287;47.554;7.844;2023-06-01T13:24:50;97681.91;;;29.62;34.34
50790;BME280;37287;47.554;7.844;2023-06-01T13:27:20;97679.31;;;29.93;34.14
50790;BME280;37287;47.554;7.844;2023-06-01T13:29:50;97673.16;;;30.06;33.72
50790;BME280;37287;47.554;7.844;2023-06-01T13:32:17;97678.31;;;29.84;33.89
50790;BME280;37287;47.554;7.844;2023-06-01T13:34:47;97665.91;;;29.74;34.40
50790;BME280;37287;47.554;7.844;2023-06-01T13:37:14;97662.69;;;29.36;34.63